Time;durP1;ratioP1;P1;durP2;ratioP2;P2;SDS_P1;SDS_P2;PMS_P1;PMS_P2;Temp;Humidity;BMP_temperature;BMP_pressure;BME280_temperature;BME280_humidity;BME280_pressure;Samples;Min_cycle;Max_cycle;Signal;HPM_P1;HPM_P2
2021/06/30 00:00:11;;;;;;;1.20;0.83;;;20.30;1.00;;;;;;5079265;28;20485;-80
2021/06/30 00:02:45;;;;;;;0.70;0.70;;;20.20;1.00;;;;;;5058245;28;20458;-80
2021/06/30 00:05:18;;;;;;;0.70;0.70;;;20.20;1.00;;;;;;5071412;28;20455;-81
2021/06/30 00:07:52;;;;;;;1.00;0.60;;;20.20;1.00;;;;;;5059815;28;20504;-79
2021/06/30 00:10:27;;;;;;;0.73;0.70;;;20.10;1.00;;;;;;5065143;28;20447;-80
2021/06/30 00:13:00;;;;;;;0.80;0.80;;;20.20;1.00;;;;;;5069562;28;20504;-79
2021/06/30 00:15:33;;;;;;;0.63;0.63;;;20.20;1.00;;;;;;5069416;28;21151;-79
2021/06/30 00:18:07;;;;;;;1.43;0.70;;;20.10;1.00;;;;;;5081423;28;21063;-80
2021/06/30 00:20:40;;;;;;;1.03;0.60;;;20.10;1.00;;;;;;5059398;28;20448;-79
2021/06/30 00:23:14;;;;;;;0.60;0.60;;;20.10;1.00;;;;;;5077310;28;20852;-79
2021/06/30 00:25:48;;;;;;;1.53;0.80;;;20.10;1.00;;;;;;5065728;28;20475;-82
2021/06/30 00:28:21;;;;;;;0.77;0.73;;;20.10;1.00;;;;;;5065390;28;20442;-79
2021/06/30 00:30:49;;;;;;;0.87;0.60;;;20.00;1.00;;;;;;5080935;28;20461;-79
2021/06/30 00:33:22;;;;;;;0.60;0.60;;;19.90;1.00;;;;;;5072624;28;20455;-80
2021/06/30 00:35:55;;;;;;;0.63;0.63;;;20.00;1.00;;;;;;5084129;28;20476;-80
2021/06/30 00:38:28;;;;;;;0.77;0.60;;;20.00;1.00;;;;;;5071203;28;20471;-78
2021/06/30 00:41:03;;;;;;;0.93;0.70;;;19.90;1.00;;;;;;5070813;28;20462;-80
2021/06/30 00:43:36;;;;;;;1.97;0.97;;;19.90;1.00;;;;;;5071251;28;20462;-78
2021/06/30 00:46:09;;;;;;;0.70;0.70;;;19.80;1.00;;;;;;5073894;28;20471;-80
2021/06/30 00:48:39;;;;;;;1.13;0.70;;;19.60;1.00;;;;;;5073263;28;20533;-80
2021/06/30 00:51:12;;;;;;;0.90;0.70;;;19.60;1.00;;;;;;5074164;28;20487;-80
2021/06/30 00:53:45;;;;;;;1.13;0.60;;;19.50;1.00;;;;;;5076249;28;20624;-82
2021/06/30 00:56:22;;;;;;;0.90;0.60;;;19.20;1.00;;;;;;5067442;28;20470;-81
2021/06/30 00:58:51;;;;;;;0.73;0.73;;;19.20;1.00;;;;;;5077486;28;20478;-80
2021/06/30 01:01:25;;;;;;;1.37;0.60;;;19.20;1.00;;;;;;5054331;28;20486;-81
2021/06/30 01:03:58;;;;;;;0.80;0.80;;;19.20;1.00;;;;;;5072404;28;20438;-80
2021/06/30 01:06:31;;;;;;;0.67;0.67;;;19.20;1.00;;;;;;5061306;28;20466;-80
2021/06/30 01:09:06;;;;;;;0.77;0.77;;;19.30;1.00;;;;;;5068837;28;20453;-81
2021/06/30 01:11:35;;;;;;;0.90;0.80;;;19.40;1.00;;;;;;5072700;28;20438;-82
2021/06/30 01:14:08;;;;;;;0.87;0.87;;;19.40;1.00;;;;;;5061045;28;21094;-80
2021/06/30 01:16:41;;;;;;;0.73;0.73;;;19.30;1.00;;;;;;5067234;28;20512;-80
2021/06/30 01:19:21;;;;;;;0.70;0.60;;;19.20;1.00;;;;;;5064173;28;20497;-82
2021/06/30 01:21:57;;;;;;;1.33;0.63;;;19.00;61.60;;;;;;5080135;28;20517;-81
2021/06/30 01:24:32;;;;;;;0.50;0.50;;;18.80;99.90;;;;;;5080294;28;20815;-83
2021/06/30 01:27:06;;;;;;;6.00;0.70;;;18.80;99.90;;;;;;5074046;28;20520;-82
2021/06/30 01:29:39;;;;;;;0.60;0.60;;;19.00;99.90;;;;;;5066713;28;20458;-81
2021/06/30 01:32:12;;;;;;;2.27;0.63;;;19.00;99.90;;;;;;5072363;28;20458;-81
2021/06/30 01:34:47;;;;;;;1.63;0.60;;;19.00;99.90;;;;;;5069265;28;20820;-81
2021/06/30 01:37:20;;;;;;;3.43;0.60;;;19.00;99.90;;;;;;5080781;28;20920;-81
2021/06/30 01:39:54;;;;;;;0.80;0.60;;;18.90;1.00;;;;;;5069243;28;21329;-82
2021/06/30 01:42:22;;;;;;;0.70;0.60;;;18.90;1.00;;;;;;5080321;28;20467;-80
2021/06/30 01:44:55;;;;;;;0.70;0.60;;;18.90;1.00;;;;;;5066360;28;20469;-81
2021/06/30 01:47:28;;;;;;;0.60;0.60;;;18.80;99.90;;;;;;5068792;28;20462;-80
2021/06/30 01:50:01;;;;;;;1.10;0.60;;;18.80;99.90;;;;;;5070970;28;20447;-83
2021/06/30 01:52:30;;;;;;;0.50;0.50;;;18.70;99.90;;;;;;5064378;28;20705;-80
2021/06/30 01:55:05;;;;;;;0.40;0.40;;;18.60;99.90;;;;;;5056457;28;20454;-80
2021/06/30 01:57:42;;;;;;;0.50;0.50;;;18.50;99.90;;;;;;5080758;28;20480;-80
2021/06/30 02:00:18;;;;;;;0.40;0.40;;;18.40;99.90;;;;;;5074561;28;20509;-82
2021/06/30 02:02:47;;;;;;;0.40;0.40;;;18.50;99.90;;;;;;5081361;28;20461;-83
2021/06/30 02:05:22;;;;;;;0.50;0.50;;;18.60;99.90;;;;;;5070445;28;20454;-80
2021/06/30 02:07:57;;;;;;;0.43;0.43;;;18.40;99.90;;;;;;5082415;28;20467;-81
2021/06/30 02:10:29;;;;;;;0.60;0.40;;;18.30;99.90;;;;;;5078077;28;20449;-81
2021/06/30 02:13:02;;;;;;;0.57;0.53;;;18.30;99.90;;;;;;5066758;28;20479;-81
2021/06/30 02:15:32;;;;;;;0.77;0.50;;;18.30;99.90;;;;;;5060435;28;20453;-82
2021/06/30 02:18:01;;;;;;;0.40;0.40;;;18.10;99.90;;;;;;5061992;28;20576;-80
2021/06/30 02:20:34;;;;;;;0.60;0.40;;;18.00;99.90;;;;;;5072829;28;20480;-82
2021/06/30 02:23:02;;;;;;;0.60;0.50;;;18.00;99.90;;;;;;5075597;28;20456;-83
2021/06/30 02:25:37;;;;;;;0.83;0.60;;;18.00;99.90;;;;;;5083114;28;20503;-80
2021/06/30 02:28:10;;;;;;;0.40;0.40;;;18.00;99.90;;;;;;5076346;28;20469;-82
2021/06/30 02:30:43;;;;;;;0.40;0.40;;;17.90;99.90;;;;;;5087759;28;20532;-78
2021/06/30 02:33:16;;;;;;;0.50;0.50;;;17.90;99.90;;;;;;5082251;28;20450;-82
2021/06/30 02:35:49;;;;;;;0.40;0.40;;;17.90;99.90;;;;;;5075957;28;20999;-80
2021/06/30 02:38:22;;;;;;;1.50;0.50;;;17.90;99.90;;;;;;5076177;28;20533;-79
2021/06/30 02:40:57;;;;;;;1.70;0.40;;;17.90;99.90;;;;;;5069012;28;20474;-81
2021/06/30 02:43:30;;;;;;;1.17;0.40;;;18.00;98.30;;;;;;5065808;28;20479;-81
2021/06/30 02:45:58;;;;;;;0.63;0.40;;;17.90;99.90;;;;;;5069080;28;21023;-80
2021/06/30 02:48:31;;;;;;;0.40;0.40;;;18.00;61.60;;;;;;5079115;28;20822;-84
2021/06/30 02:51:05;;;;;;;0.40;0.40;;;18.00;1.00;;;;;;5065228;28;20452;-81
2021/06/30 02:53:33;;;;;;;0.40;0.40;;;17.90;21.10;;;;;;5074500;28;20817;-80
2021/06/30 02:56:07;;;;;;;0.67;0.30;;;17.80;1.00;;;;;;5080959;28;20484;-81
2021/06/30 02:58:35;;;;;;;0.30;0.30;;;17.80;1.00;;;;;;5081962;28;20462;-78
2021/06/30 03:01:08;;;;;;;0.53;0.40;;;17.80;1.00;;;;;;5086889;28;20477;-80
2021/06/30 03:03:41;;;;;;;0.70;0.40;;;17.60;30.00;;;;;;5083689;28;20457;-81
2021/06/30 03:06:14;;;;;;;1.23;0.40;;;17.50;99.90;;;;;;5071389;28;20497;-80
2021/06/30 03:08:50;;;;;;;0.40;0.40;;;17.60;99.90;;;;;;5075807;28;20717;-80
2021/06/30 03:11:24;;;;;;;1.17;0.40;;;17.60;59.90;;;;;;5070874;28;20515;-79
2021/06/30 03:13:52;;;;;;;2.10;0.40;;;17.40;99.90;;;;;;5068191;28;20473;-80
2021/06/30 03:16:25;;;;;;;0.40;0.40;;;17.40;99.90;;;;;;5075793;28;20467;-81
2021/06/30 03:18:58;;;;;;;0.50;0.43;;;17.50;99.90;;;;;;5069078;28;20463;-81
2021/06/30 03:21:31;;;;;;;0.53;0.50;;;17.60;99.90;;;;;;5075953;28;20880;-81
2021/06/30 03:24:04;;;;;;;0.40;0.40;;;17.40;99.90;;;;;;5066267;28;20989;-80
2021/06/30 03:26:39;;;;;;;0.40;0.40;;;17.30;99.90;;;;;;5071618;28;20557;-80
2021/06/30 03:29:12;;;;;;;1.93;0.47;;;17.20;1.00;;;;;;5071856;28;20456;-80
2021/06/30 03:31:46;;;;;;;0.50;0.50;;;17.30;99.90;;;;;;5069044;28;20480;-80
2021/06/30 03:34:19;;;;;;;0.50;0.40;;;17.30;99.90;;;;;;5062840;28;20453;-80
2021/06/30 03:36:47;;;;;;;0.57;0.43;;;17.10;1.00;;;;;;5075783;28;20469;-81
2021/06/30 03:39:15;;;;;;;0.47;0.47;;;17.30;1.00;;;;;;5071226;28;20468;-80
2021/06/30 03:41:49;;;;;;;0.50;0.43;;;17.30;99.90;;;;;;5059987;28;20460;-79
2021/06/30 03:44:22;;;;;;;0.80;0.50;;;17.30;99.90;;;;;;5067608;28;20449;-80
2021/06/30 03:46:51;;;;;;;0.87;0.40;;;17.30;99.90;;;;;;5075025;28;20939;-79
2021/06/30 03:49:24;;;;;;;1.03;0.40;;;17.30;99.90;;;;;;5081841;28;20453;-82
2021/06/30 03:52:03;;;;;;;0.40;0.40;;;17.20;99.90;;;;;;5078303;28;20449;-79
2021/06/30 03:54:38;;;;;;;0.50;0.40;;;17.20;99.90;;;;;;5072846;28;20952;-78
2021/06/30 03:57:12;;;;;;;0.40;0.40;;;17.10;99.90;;;;;;5071041;28;20453;-80
2021/06/30 03:59:45;;;;;;;0.40;0.40;;;17.10;99.90;;;;;;5066758;28;20453;-82
2021/06/30 04:02:16;;;;;;;0.40;0.40;;;17.30;99.90;;;;;;5071244;28;20529;-80
2021/06/30 04:04:56;;;;;;;0.90;0.50;;;17.30;99.90;;;;;;5065699;28;20548;-78
2021/06/30 04:07:29;;;;;;;0.50;0.50;;;17.10;99.90;;;;;;5073644;28;20473;-80
2021/06/30 04:10:03;;;;;;;0.47;0.47;;;17.10;1.00;;;;;;5085304;28;20444;-79
2021/06/30 04:12:37;;;;;;;0.90;0.50;;;17.10;99.90;;;;;;5080423;28;20967;-79
2021/06/30 04:15:07;;;;;;;0.50;0.50;;;17.20;1.00;;;;;;5069778;28;20450;-79
2021/06/30 04:17:40;;;;;;;0.50;0.50;;;17.20;99.90;;;;;;5074656;28;20900;-80
2021/06/30 04:20:13;;;;;;;0.80;0.50;;;17.20;1.00;;;;;;5067573;28;20449;-79
2021/06/30 04:22:46;;;;;;;1.00;0.40;;;17.20;99.90;;;;;;5072487;28;20505;-80
2021/06/30 04:25:19;;;;;;;0.43;0.43;;;17.40;99.90;;;;;;5079815;28;20455;-79
2021/06/30 04:27:54;;;;;;;0.80;0.40;;;17.40;99.90;;;;;;5073930;28;20606;-79
2021/06/30 04:30:27;;;;;;;0.40;0.40;;;17.60;99.90;;;;;;5075858;28;20937;-79
2021/06/30 04:33:00;;;;;;;0.50;0.50;;;17.60;99.90;;;;;;5073832;28;20473;-78
2021/06/30 04:35:33;;;;;;;0.50;0.50;;;17.60;99.90;;;;;;5091685;28;20954;-79
2021/06/30 04:38:07;;;;;;;0.80;0.43;;;17.40;99.90;;;;;;5084498;28;20444;-79
2021/06/30 04:40:40;;;;;;;0.43;0.43;;;17.40;99.90;;;;;;5075816;28;21091;-79
2021/06/30 04:43:15;;;;;;;1.23;0.50;;;17.50;99.90;;;;;;5056690;28;20446;-80
2021/06/30 04:45:48;;;;;;;1.20;0.63;;;17.60;99.90;;;;;;5067778;28;20462;-81
2021/06/30 04:48:21;;;;;;;1.57;0.80;;;17.80;99.90;;;;;;5079224;28;21113;-81
2021/06/30 04:50:54;;;;;;;0.60;0.60;;;17.90;99.90;;;;;;5067490;28;20478;-80
2021/06/30 04:53:27;;;;;;;0.87;0.63;;;17.90;99.90;;;;;;5069335;28;20550;-82
2021/06/30 04:56:00;;;;;;;0.90;0.70;;;17.90;99.90;;;;;;5064505;28;20479;-79
2021/06/30 04:58:34;;;;;;;1.27;0.90;;;17.90;93.90;;;;;;5066094;28;21164;-71
2021/06/30 05:01:07;;;;;;;1.33;0.53;;;17.70;99.90;;;;;;5064757;28;20880;-71
2021/06/30 05:03:40;;;;;;;0.70;0.60;;;17.50;99.90;;;;;;5062698;28;20465;-71
2021/06/30 05:06:14;;;;;;;1.10;0.53;;;17.40;99.90;;;;;;5082583;28;20469;-71
2021/06/30 05:08:47;;;;;;;0.50;0.50;;;17.30;99.90;;;;;;5064518;28;20461;-70
2021/06/30 05:11:20;;;;;;;0.50;0.50;;;17.30;99.90;;;;;;5076763;28;20455;-71
2021/06/30 05:13:54;;;;;;;0.97;0.50;;;17.40;99.90;;;;;;5066749;28;20457;-71
2021/06/30 05:16:27;;;;;;;0.50;0.50;;;17.50;99.90;;;;;;5059901;28;20821;-70
2021/06/30 05:18:55;;;;;;;1.10;0.50;;;17.50;99.90;;;;;;5085591;28;20475;-72
2021/06/30 05:21:28;;;;;;;0.90;0.60;;;17.50;99.90;;;;;;5073381;28;20476;-72
2021/06/30 05:24:01;;;;;;;1.00;0.60;;;17.40;99.90;;;;;;5069301;28;20458;-81
2021/06/30 05:26:34;;;;;;;0.50;0.50;;;17.40;99.90;;;;;;5066445;28;21007;-82
2021/06/30 05:29:09;;;;;;;0.63;0.60;;;17.30;99.90;;;;;;5067096;28;20551;-81
2021/06/30 05:31:42;;;;;;;0.77;0.50;;;17.40;99.90;;;;;;5073665;28;20539;-83
2021/06/30 05:34:15;;;;;;;0.50;0.50;;;17.50;99.90;;;;;;5067841;28;21013;-80
2021/06/30 05:36:49;;;;;;;0.50;0.50;;;17.50;99.90;;;;;;5083314;28;20544;-80
2021/06/30 05:39:22;;;;;;;0.83;0.73;;;17.60;99.90;;;;;;5068466;28;20430;-79
2021/06/30 05:41:55;;;;;;;0.60;0.60;;;17.40;99.90;;;;;;5067843;28;20497;-79
2021/06/30 05:44:29;;;;;;;1.53;0.67;;;17.30;99.90;;;;;;5068476;28;20936;-79
2021/06/30 05:47:02;;;;;;;0.70;0.60;;;17.20;42.40;;;;;;5067952;28;20451;-79
2021/06/30 05:49:36;;;;;;;0.50;0.50;;;17.30;1.00;;;;;;5057640;28;20823;-78
2021/06/30 05:52:04;;;;;;;0.40;0.40;;;17.60;99.90;;;;;;5046992;28;20434;-82
2021/06/30 05:54:32;;;;;;;1.10;0.50;;;17.60;99.90;;;;;;5060514;28;20450;-81
2021/06/30 05:57:00;;;;;;;0.50;0.50;;;17.40;99.90;;;;;;5065299;28;20480;-77
2021/06/30 05:59:30;;;;;;;0.50;0.40;;;17.40;1.00;;;;;;5069167;28;20929;-79
2021/06/30 06:02:03;;;;;;;1.00;0.50;;;17.50;99.90;;;;;;5069596;28;20483;-79
2021/06/30 06:04:36;;;;;;;0.53;0.50;;;17.70;99.90;;;;;;5070524;28;20460;-76
2021/06/30 06:07:09;;;;;;;0.70;0.50;;;17.70;99.90;;;;;;5069941;28;20473;-79
2021/06/30 06:09:42;;;;;;;0.60;0.60;;;17.60;99.90;;;;;;5076416;28;20453;-78
2021/06/30 06:12:15;;;;;;;0.80;0.50;;;17.60;99.90;;;;;;5068511;28;20493;-80
2021/06/30 06:14:50;;;;;;;0.50;0.50;;;17.60;99.90;;;;;;5070456;28;20492;-77
2021/06/30 06:17:23;;;;;;;0.50;0.50;;;17.60;99.90;;;;;;5066039;28;20491;-77
2021/06/30 06:19:51;;;;;;;0.57;0.57;;;17.70;99.90;;;;;;5089534;28;20982;-78
2021/06/30 06:22:24;;;;;;;1.37;0.50;;;17.70;99.90;;;;;;5077900;28;20485;-80
2021/06/30 06:24:57;;;;;;;0.63;0.50;;;17.90;99.90;;;;;;5068144;28;20462;-78
2021/06/30 06:27:30;;;;;;;2.90;0.60;;;18.00;68.40;;;;;;5064125;28;20478;-79
2021/06/30 06:30:06;;;;;;;0.60;0.60;;;17.90;75.60;;;;;;5050358;28;20473;-76
2021/06/30 06:32:39;;;;;;;0.70;0.60;;;17.90;59.50;;;;;;5051733;28;20437;-79
2021/06/30 06:35:12;;;;;;;0.97;0.50;;;17.80;92.40;;;;;;5050576;28;20433;-82
2021/06/30 06:37:41;;;;;;;0.50;0.50;;;17.90;96.20;;;;;;5063227;28;20470;-80
2021/06/30 06:40:14;;;;;;;0.70;0.50;;;18.00;56.60;;;;;;5085484;28;20454;-78
2021/06/30 06:42:47;;;;;;;1.23;0.50;;;17.90;99.90;;;;;;5068655;28;20828;-78
2021/06/30 06:45:21;;;;;;;1.20;0.40;;;18.00;93.70;;;;;;5069236;28;20445;-79
2021/06/30 06:47:54;;;;;;;0.47;0.47;;;18.00;99.90;;;;;;5053631;28;20534;-78
2021/06/30 06:50:22;;;;;;;1.30;0.57;;;18.20;99.90;;;;;;5049947;28;20436;-78
2021/06/30 06:52:56;;;;;;;4.53;0.50;;;18.40;60.80;;;;;;5052336;28;21041;-79
2021/06/30 06:55:29;;;;;;;0.47;0.47;;;18.40;1.00;;;;;;5079839;28;20504;-78
2021/06/30 06:58:02;;;;;;;0.47;0.47;;;18.30;1.00;;;;;;5061244;28;20458;-79
2021/06/30 07:00:36;;;;;;;0.40;0.40;;;18.40;1.00;;;;;;5061336;28;21138;-77
2021/06/30 07:03:04;;;;;;;0.47;0.47;;;18.40;1.00;;;;;;5069489;28;20502;-80
2021/06/30 07:05:37;;;;;;;0.63;0.63;;;18.50;1.00;;;;;;5071535;28;20844;-80
2021/06/30 07:08:10;;;;;;;0.40;0.40;;;18.60;1.00;;;;;;5071080;28;20446;-77
2021/06/30 07:10:43;;;;;;;0.53;0.50;;;18.70;1.00;;;;;;5070620;28;20458;-81
2021/06/30 07:13:16;;;;;;;0.50;0.50;;;18.70;1.00;;;;;;5070881;28;20457;-76
2021/06/30 07:15:50;;;;;;;0.50;0.40;;;18.70;1.00;;;;;;5052061;28;20871;-80
2021/06/30 07:18:24;;;;;;;0.40;0.40;;;18.60;1.00;;;;;;5055515;28;20446;-80
2021/06/30 07:20:52;;;;;;;0.40;0.40;;;18.70;1.00;;;;;;5060073;28;20827;-78
2021/06/30 07:23:25;;;;;;;0.40;0.40;;;18.90;1.00;;;;;;5064227;28;20471;-81
2021/06/30 07:25:59;;;;;;;0.40;0.40;;;19.10;1.00;;;;;;5070622;28;20474;-78
2021/06/30 07:28:32;;;;;;;0.40;0.40;;;19.20;1.00;;;;;;5069735;28;20958;-83
2021/06/30 07:31:07;;;;;;;0.50;0.40;;;19.20;1.00;;;;;;5062949;28;20474;-79
2021/06/30 07:33:40;;;;;;;2.20;0.40;;;19.20;1.00;;;;;;5049538;28;20523;-80
2021/06/30 07:36:14;;;;;;;0.90;0.40;;;19.20;1.00;;;;;;5051729;28;20755;-77
2021/06/30 07:38:47;;;;;;;0.43;0.43;;;19.20;1.00;;;;;;5068340;28;20438;-77
2021/06/30 07:41:20;;;;;;;0.57;0.47;;;19.10;1.00;;;;;;5069475;28;20897;-82
2021/06/30 07:43:53;;;;;;;0.60;0.40;;;19.00;1.00;;;;;;5068326;28;20552;-77
2021/06/30 07:46:23;;;;;;;0.40;0.40;;;19.10;1.00;;;;;;5070142;28;20537;-77
2021/06/30 07:48:51;;;;;;;0.70;0.40;;;19.00;1.00;;;;;;5067918;28;20461;-77
2021/06/30 07:51:20;;;;;;;0.57;0.40;;;18.90;1.00;;;;;;5078489;28;20856;-77
2021/06/30 07:53:48;;;;;;;1.93;0.40;;;18.70;1.00;;;;;;5081495;28;20478;-77
2021/06/30 07:56:17;;;;;;;0.40;0.40;;;18.60;1.00;;;;;;5069602;28;20478;-77
2021/06/30 07:58:45;;;;;;;1.17;0.53;;;18.70;1.00;;;;;;5067159;28;20486;-81
2021/06/30 08:01:13;;;;;;;0.40;0.40;;;18.70;1.00;;;;;;5056313;28;20500;-80
2021/06/30 08:03:42;;;;;;;0.50;0.50;;;18.70;1.00;;;;;;5068972;28;20471;-80
2021/06/30 08:06:10;;;;;;;0.50;0.50;;;18.80;1.00;;;;;;5070257;28;20482;-77
2021/06/30 08:08:39;;;;;;;0.97;0.43;;;18.90;1.00;;;;;;5070730;28;20904;-77
2021/06/30 08:11:07;;;;;;;0.70;0.70;;;19.00;1.00;;;;;;5067351;28;20998;-77
2021/06/30 08:13:35;;;;;;;0.47;0.47;;;18.90;1.00;;;;;;5050183;28;20459;-79
2021/06/30 08:16:03;;;;;;;0.40;0.40;;;18.70;1.00;;;;;;5053390;28;20894;-78
2021/06/30 08:18:31;;;;;;;0.73;0.50;;;18.80;1.00;;;;;;5067602;28;20442;-79
2021/06/30 08:21:01;;;;;;;0.43;0.40;;;18.80;1.00;;;;;;5069278;28;20499;-80
2021/06/30 08:23:29;;;;;;;0.33;0.33;;;19.00;1.00;;;;;;5068683;28;20478;-78
2021/06/30 08:25:57;;;;;;;0.40;0.40;;;19.10;1.00;;;;;;5068816;28;20463;-78
2021/06/30 08:28:26;;;;;;;0.50;0.50;;;19.20;1.00;;;;;;5055863;28;20463;-78
2021/06/30 08:30:55;;;;;;;1.00;0.50;;;19.20;1.00;;;;;;5063565;28;20691;-80
2021/06/30 08:33:23;;;;;;;0.40;0.40;;;19.20;1.00;;;;;;5082985;28;20442;-77
2021/06/30 08:35:54;;;;;;;0.70;0.50;;;19.20;1.00;;;;;;5067445;28;20465;-76
2021/06/30 08:38:23;;;;;;;0.50;0.50;;;19.20;1.00;;;;;;5069097;28;20427;-78
2021/06/30 08:40:54;;;;;;;0.80;0.50;;;19.20;1.00;;;;;;5068412;28;21034;-77
2021/06/30 08:43:22;;;;;;;1.27;0.77;;;19.30;1.00;;;;;;5067569;28;20470;-79
2021/06/30 08:45:51;;;;;;;2.37;0.67;;;19.40;1.00;;;;;;5065777;28;21054;-78
2021/06/30 08:48:20;;;;;;;0.50;0.50;;;19.50;1.00;;;;;;5048336;28;20505;-78
2021/06/30 08:50:49;;;;;;;0.80;0.50;;;19.40;99.90;;;;;;5047253;28;20965;-77
2021/06/30 08:53:20;;;;;;;0.47;0.47;;;19.30;99.90;;;;;;5048837;28;20436;-77
2021/06/30 08:55:50;;;;;;;0.63;0.50;;;19.30;99.90;;;;;;5048677;28;20513;-76
2021/06/30 08:58:18;;;;;;;2.93;0.40;;;19.40;99.90;;;;;;5048592;28;20805;-77
2021/06/30 09:00:46;;;;;;;1.13;0.47;;;19.20;99.90;;;;;;5061063;28;20541;-76
2021/06/30 09:03:16;;;;;;;0.40;0.40;;;19.00;99.90;;;;;;5064751;28;21136;-80
2021/06/30 09:09:06;;;;;;;0.50;0.40;;;19.10;99.90;;;;;;5069436;28;20995;-77
2021/06/30 09:11:35;;;;;;;0.40;0.40;;;18.80;99.90;;;;;;5067993;28;20443;-77
2021/06/30 09:14:21;;;;;;;0.40;0.40;;;18.90;99.90;;;;;;5061686;28;20883;-79
2021/06/30 09:17:07;;;;;;;0.43;0.43;;;19.00;99.90;;;;;;5048117;28;21023;-79
2021/06/30 09:19:50;;;;;;;0.63;0.57;;;18.90;99.90;;;;;;5053226;28;20512;-79
2021/06/30 09:22:18;;;;;;;0.77;0.60;;;18.90;99.90;;;;;;5069197;28;20442;-78
2021/06/30 09:24:48;;;;;;;0.40;0.40;;;19.00;99.90;;;;;;5088450;28;20484;-78
2021/06/30 09:27:19;;;;;;;1.90;0.50;;;19.10;99.90;;;;;;5079058;28;20525;-77
2021/06/30 09:29:47;;;;;;;0.93;0.60;;;19.30;99.90;;;;;;5050569;28;20448;-79
2021/06/30 09:32:17;;;;;;;0.53;0.47;;;19.40;99.90;;;;;;5068694;28;20445;-78
2021/06/30 09:34:45;;;;;;;0.60;0.53;;;19.50;99.90;;;;;;5051594;28;20471;-78
2021/06/30 09:37:13;;;;;;;1.03;0.50;;;19.50;99.90;;;;;;5069457;28;20535;-77
2021/06/30 09:39:54;;;;;;;1.00;0.67;;;19.50;99.90;;;;;;5070725;28;20716;-77
2021/06/30 09:42:31;;;;;;;0.87;0.40;;;19.60;99.90;;;;;;5071969;28;20457;-80
2021/06/30 09:45:12;;;;;;;0.30;0.30;;;19.70;99.90;;;;;;5070348;28;20496;-80
2021/06/30 09:47:46;;;;;;;0.50;0.40;;;19.70;99.90;;;;;;5076553;28;20550;-80
2021/06/30 09:50:15;;;;;;;0.40;0.40;;;19.70;99.90;;;;;;5069927;28;20502;-80
2021/06/30 09:52:46;;;;;;;0.40;0.40;;;19.80;99.90;;;;;;5074159;28;20443;-78
2021/06/30 09:55:25;;;;;;;1.00;0.50;;;19.80;99.90;;;;;;5069517;28;20450;-78
2021/06/30 09:57:54;;;;;;;0.60;0.50;;;20.00;99.90;;;;;;5072559;28;20442;-80
2021/06/30 10:00:26;;;;;;;0.50;0.50;;;20.10;99.90;;;;;;5080898;28;20835;-84
2021/06/30 10:02:54;;;;;;;2.07;0.50;;;20.20;99.90;;;;;;5072327;28;20456;-80
2021/06/30 10:05:30;;;;;;;2.20;0.60;;;20.30;99.90;;;;;;5069652;28;20498;-78
2021/06/30 10:08:09;;;;;;;0.60;0.50;;;20.40;99.90;;;;;;5066363;28;20699;-80
2021/06/30 10:10:38;;;;;;;0.60;0.60;;;20.50;99.90;;;;;;5070202;28;20516;-77
2021/06/30 10:13:08;;;;;;;0.60;0.50;;;20.60;99.90;;;;;;5075997;28;20466;-79
2021/06/30 10:15:36;;;;;;;0.60;0.50;;;20.40;99.90;;;;;;5071381;28;20992;-76
2021/06/30 10:18:05;;;;;;;0.43;0.43;;;20.30;99.90;;;;;;5069758;28;20450;-79
2021/06/30 10:20:42;;;;;;;0.50;0.50;;;20.00;99.90;;;;;;5070752;28;20458;-80
2021/06/30 10:23:10;;;;;;;1.23;0.60;;;20.10;99.90;;;;;;5079762;28;21031;-79
2021/06/30 10:25:38;;;;;;;0.50;0.50;;;20.40;99.90;;;;;;5071357;28;20455;-78
2021/06/30 10:28:08;;;;;;;0.50;0.50;;;20.50;99.90;;;;;;5060805;28;20460;-77
2021/06/30 10:30:36;;;;;;;0.50;0.50;;;20.70;99.90;;;;;;5050199;28;20455;-79
2021/06/30 10:33:05;;;;;;;0.43;0.43;;;20.80;99.90;;;;;;5051357;28;20868;-78
2021/06/30 10:35:45;;;;;;;0.50;0.50;;;20.80;99.90;;;;;;5051480;28;20428;-78
2021/06/30 10:38:14;;;;;;;0.60;0.60;;;20.90;99.90;;;;;;5062624;28;20595;-80
2021/06/30 10:40:42;;;;;;;1.53;0.50;;;20.80;99.90;;;;;;5051121;28;20445;-81
2021/06/30 10:43:13;;;;;;;0.60;0.60;;;20.90;99.90;;;;;;5050504;28;20454;-81
2021/06/30 10:45:42;;;;;;;0.60;0.50;;;21.00;99.90;;;;;;5053002;28;20479;-77
2021/06/30 10:48:13;;;;;;;0.50;0.50;;;21.10;99.90;;;;;;5049557;28;20482;-81
2021/06/30 10:50:43;;;;;;;1.13;0.50;;;21.20;99.90;;;;;;5064376;28;20498;-78
2021/06/30 10:53:37;;;;;;;0.60;0.60;;;21.30;99.90;;;;;;5069952;28;20929;-76
2021/06/30 10:56:11;;;;;;;2.70;0.50;;;21.30;99.90;;;;;;5087109;28;21077;-78
2021/06/30 10:58:43;;;;;;;0.60;0.60;;;21.20;99.90;;;;;;5075319;28;20949;-79
2021/06/30 11:01:19;;;;;;;0.63;0.50;;;21.20;99.90;;;;;;5072617;28;20883;-78
2021/06/30 11:03:50;;;;;;;1.83;0.50;;;21.00;99.90;;;;;;5083548;28;20991;-79
2021/06/30 11:06:29;;;;;;;1.33;0.50;;;20.80;99.90;;;;;;5068458;28;20879;-76
2021/06/30 11:09:05;;;;;;;0.40;0.40;;;20.80;99.90;;;;;;5069332;28;20442;-77
2021/06/30 11:12:03;;;;;;;0.93;0.50;;;20.80;99.90;;;;;;5063698;28;20467;-79
2021/06/30 11:14:45;;;;;;;0.60;0.50;;;21.00;99.90;;;;;;5073592;28;20504;-79
2021/06/30 11:17:36;;;;;;;0.50;0.50;;;21.00;99.90;;;;;;5069850;28;20498;-78
2021/06/30 11:20:06;;;;;;;0.50;0.50;;;21.00;99.90;;;;;;5067097;28;20454;-80
2021/06/30 11:22:35;;;;;;;0.70;0.50;;;20.90;99.90;;;;;;5067228;28;20454;-78
2021/06/30 11:25:06;;;;;;;0.50;0.50;;;20.90;99.90;;;;;;5067179;28;20977;-79
2021/06/30 11:27:45;;;;;;;0.50;0.43;;;20.90;99.90;;;;;;5067928;28;20462;-77
2021/06/30 11:30:37;;;;;;;0.50;0.50;;;20.80;99.90;;;;;;5058970;28;21102;-79
2021/06/30 11:33:14;;;;;;;0.93;0.70;;;20.80;99.90;;;;;;5082860;28;20466;-80
2021/06/30 11:35:46;;;;;;;0.60;0.60;;;20.70;99.90;;;;;;5064439;28;20438;-78
2021/06/30 11:38:26;;;;;;;0.60;0.60;;;20.70;99.90;;;;;;5068679;28;20435;-78
2021/06/30 11:41:05;;;;;;;0.50;0.50;;;20.60;99.90;;;;;;5071742;28;20500;-80
2021/06/30 11:43:36;;;;;;;0.90;0.50;;;20.40;99.90;;;;;;5068367;28;20450;-80
2021/06/30 11:46:07;;;;;;;0.53;0.53;;;20.20;99.90;;;;;;5072489;28;20482;-79
2021/06/30 11:48:37;;;;;;;0.70;0.57;;;20.10;99.90;;;;;;5072850;28;20904;-77
2021/06/30 11:51:06;;;;;;;2.50;0.80;;;20.00;99.90;;;;;;5073791;28;20443;-77
2021/06/30 11:53:40;;;;;;;1.10;0.60;;;20.00;99.90;;;;;;5068938;28;20454;-82
2021/06/30 11:56:11;;;;;;;0.60;0.60;;;20.00;99.90;;;;;;5084458;28;20466;-82
2021/06/30 11:58:41;;;;;;;0.60;0.60;;;19.90;1.00;;;;;;5082713;28;20454;-77
2021/06/30 12:01:25;;;;;;;0.70;0.50;;;20.00;1.00;;;;;;5067594;28;20458;-81
2021/06/30 12:04:17;;;;;;;0.60;0.60;;;20.20;1.00;;;;;;5069657;28;20554;-78
2021/06/30 12:06:56;;;;;;;0.60;0.60;;;20.30;1.00;;;;;;5067325;28;20459;-80
2021/06/30 12:09:26;;;;;;;0.50;0.50;;;20.40;1.00;;;;;;5069918;28;20447;-85
2021/06/30 12:11:57;;;;;;;0.60;0.60;;;20.40;1.00;;;;;;5074661;28;21029;-77
2021/06/30 12:14:27;;;;;;;0.60;0.60;;;20.50;1.00;;;;;;5080541;28;20443;-80
2021/06/30 12:16:59;;;;;;;1.70;0.63;;;20.50;1.00;;;;;;5071121;28;20469;-78
2021/06/30 12:19:40;;;;;;;1.07;0.60;;;20.60;1.00;;;;;;5080018;28;20457;-79
2021/06/30 12:22:19;;;;;;;0.70;0.50;;;20.60;99.90;;;;;;5066810;28;20442;-77
2021/06/30 12:24:53;;;;;;;0.50;0.50;;;20.50;99.90;;;;;;5051968;28;20478;-77
2021/06/30 12:27:21;;;;;;;0.60;0.60;;;20.80;99.90;;;;;;5063604;28;20528;-77
2021/06/30 12:29:56;;;;;;;0.60;0.50;;;20.60;99.90;;;;;;5064559;28;20533;-79
2021/06/30 12:32:26;;;;;;;0.77;0.50;;;20.60;99.90;;;;;;5064413;28;20451;-77
2021/06/30 12:34:59;;;;;;;0.80;0.50;;;20.70;99.90;;;;;;5062982;28;20439;-79
2021/06/30 12:37:28;;;;;;;0.70;0.70;;;20.70;99.90;;;;;;5061844;28;20478;-81
2021/06/30 12:39:59;;;;;;;0.80;0.70;;;20.80;99.90;;;;;;5079467;28;20598;-77
2021/06/30 12:42:57;;;;;;;0.63;0.60;;;20.90;99.90;;;;;;5074343;28;20552;-79
2021/06/30 12:45:38;;;;;;;1.00;0.60;;;20.90;99.90;;;;;;5073177;28;20537;-78
2021/06/30 12:48:09;;;;;;;0.57;0.57;;;21.00;99.90;;;;;;5059486;28;20451;-78
2021/06/30 12:50:39;;;;;;;0.60;0.50;;;21.10;99.90;;;;;;5062275;28;20484;-77
2021/06/30 12:53:11;;;;;;;0.70;0.70;;;21.20;99.90;;;;;;5067911;28;20457;-76
2021/06/30 12:55:50;;;;;;;0.50;0.50;;;21.20;99.90;;;;;;5063421;28;20452;-78
2021/06/30 12:58:19;;;;;;;0.80;0.70;;;21.20;99.90;;;;;;5065051;28;20465;-79
2021/06/30 13:00:59;;;;;;;0.70;0.70;;;21.10;99.90;;;;;;5061560;28;20457;-77
2021/06/30 13:03:30;;;;;;;0.50;0.50;;;21.10;99.90;;;;;;5067058;28;20796;-77
2021/06/30 13:06:13;;;;;;;0.57;0.50;;;21.20;99.90;;;;;;5080681;28;20487;-77
2021/06/30 13:08:42;;;;;;;0.50;0.50;;;21.20;99.90;;;;;;5067086;28;20488;-80
2021/06/30 13:11:18;;;;;;;1.00;0.50;;;21.00;99.90;;;;;;5064764;28;20451;-77
2021/06/30 13:13:57;;;;;;;1.13;0.50;;;21.00;99.90;;;;;;5077218;28;20824;-78
2021/06/30 13:16:28;;;;;;;0.60;0.60;;;21.00;99.90;;;;;;5076721;28;20997;-77
2021/06/30 13:18:59;;;;;;;0.50;0.50;;;21.10;99.90;;;;;;5068295;28;21093;-79
2021/06/30 13:21:29;;;;;;;1.90;0.50;;;21.10;99.90;;;;;;5059901;28;20993;-76